createdAt,value
2019-05-01T04:02:08.022Z,16.875
2019-05-01T04:05:38.162Z,16.875
2019-05-01T04:09:08.281Z,22.5
2019-05-01T04:12:38.446Z,22.5
2019-05-01T04:16:08.577Z,28.125
2019-05-01T04:19:38.786Z,22.5
2019-05-01T04:23:09.069Z,28.125
2019-05-01T04:26:39.342Z,39.375
2019-05-01T04:30:09.454Z,56.25
2019-05-01T04:33:39.736Z,50.625
2019-05-01T04:37:10.049Z,50.625
2019-05-01T04:40:40.149Z,56.25
2019-05-01T04:44:10.340Z,67.5
2019-05-01T04:47:40.569Z,84.375
2019-05-01T04:51:10.753Z,84.375
2019-05-01T04:54:40.979Z,95.625
2019-05-01T04:58:11.099Z,95.625
2019-05-01T05:01:42.219Z,95.625
2019-05-01T05:05:12.419Z,101.25
2019-05-01T05:08:42.575Z,95.625
2019-05-01T05:12:12.863Z,84.375
2019-05-01T07:45:57.483Z,382.5
2019-05-01T07:49:30.649Z,371.25
2019-05-01T07:53:00.659Z,326.25
2019-05-01T07:56:32.595Z,410.625
2019-05-01T08:00:08.488Z,399.375
2019-05-01T08:03:42.609Z,393.75
2019-05-01T08:07:09.403Z,393.75
2019-05-01T08:10:39.356Z,343.125
2019-05-01T08:14:16.439Z,343.125
2019-05-01T08:17:43.261Z,438.75
2019-05-01T08:21:13.215Z,399.375
2019-05-01T08:24:43.197Z,466.875
2019-05-01T08:28:13.169Z,416.25
2019-05-01T08:31:43.144Z,444.375
2019-05-01T08:35:13.084Z,433.125
2019-05-01T08:38:43.051Z,416.25
2019-05-01T08:42:12.999Z,511.875
2019-05-01T08:45:45.022Z,472.5
2019-05-01T08:49:15.403Z,410.625
2019-05-01T08:52:49.794Z,444.375
2019-05-01T08:56:25.744Z,388.125
2019-05-01T09:00:00.240Z,472.5
2019-05-01T09:03:28.803Z,450
2019-05-01T09:06:58.722Z,500.625
2019-05-01T09:10:28.655Z,579.375
2019-05-01T09:14:00.608Z,455.625
2019-05-01T09:17:30.523Z,427.5
2019-05-01T09:21:00.471Z,528.75
2019-05-01T09:24:32.371Z,489.375
2019-05-01T09:28:06.241Z,528.75
2019-05-01T09:31:38.160Z,489.375
2019-05-01T09:35:15.676Z,444.375
2019-05-01T09:38:43.034Z,410.625
2019-05-01T09:42:13.043Z,455.625
2019-05-01T09:45:43.148Z,410.625
2019-05-01T09:49:18.145Z,326.25
2019-05-01T09:52:46.140Z,331.875
2019-05-01T09:56:16.115Z,320.625
2019-05-01T09:59:46.064Z,354.375
2019-05-01T10:03:19.024Z,371.25
2019-05-01T10:06:54.114Z,388.125
2019-05-01T10:10:29.223Z,489.375
2019-05-01T10:14:00.422Z,489.375
2019-05-01T10:17:30.516Z,438.75
2019-05-01T10:21:00.486Z,382.5
2019-05-01T10:24:37.327Z,421.875
2019-05-01T10:28:07.042Z,405
2019-05-01T10:31:33.386Z,320.625
2019-05-01T10:35:03.394Z,337.5
2019-05-01T10:38:33.467Z,292.5
2019-05-01T10:42:03.502Z,455.625
2019-05-01T10:45:33.641Z,348.75
2019-05-01T10:49:03.588Z,320.625
2019-05-01T10:52:33.556Z,360
2019-05-01T10:56:03.495Z,337.5
2019-05-01T10:59:33.423Z,405
2019-05-01T11:03:03.355Z,275.625
2019-05-01T11:06:33.301Z,303.75
2019-05-01T11:10:04.200Z,371.25
2019-05-01T11:13:34.205Z,303.75
2019-05-01T11:17:04.132Z,388.125
2019-05-01T11:20:34.137Z,303.75
2019-05-01T11:24:04.062Z,331.875
2019-05-01T11:27:34.013Z,343.125
2019-05-01T11:31:03.952Z,264.375
2019-05-01T11:34:33.906Z,286.875
2019-05-01T11:38:03.897Z,208.125
2019-05-01T11:41:35.800Z,286.875
2019-05-01T11:45:05.810Z,393.75
2019-05-01T11:48:49.405Z,343.125
2019-05-01T11:52:21.690Z,427.5
2019-05-01T11:55:52.681Z,495
2019-05-01T11:59:22.716Z,315
2019-05-01T12:02:52.979Z,275.625
2019-05-01T12:06:25.008Z,365.625
2019-05-01T12:09:55.058Z,270
2019-05-01T12:13:25.018Z,253.125
2019-05-01T12:16:54.992Z,399.375
2019-05-01T12:20:25.082Z,258.75
2019-05-01T12:23:56.178Z,208.125
2019-05-01T12:27:26.264Z,213.75
2019-05-01T12:30:56.334Z,208.125
2019-05-01T12:34:26.412Z,354.375
2019-05-01T12:37:57.473Z,320.625
2019-05-01T12:41:27.491Z,208.125
2019-05-01T12:44:57.498Z,225
2019-05-01T12:48:31.272Z,303.75
2019-05-01T12:52:11.651Z,241.875
2019-05-01T12:55:47.246Z,191.25
2019-05-01T12:59:22.433Z,315
2019-05-01T13:02:53.139Z,225
2019-05-01T13:06:26.439Z,298.125
2019-05-01T13:10:00.994Z,185.625
2019-05-01T13:13:38.529Z,225
2019-05-01T13:17:10.345Z,286.875
2019-05-01T13:20:46.135Z,590.625
2019-05-01T13:24:20.292Z,298.125
2019-05-01T13:27:51.398Z,230.625
2019-05-01T13:31:21.349Z,405
2019-05-01T13:34:51.377Z,264.375
2019-05-01T13:38:21.346Z,219.375
2019-05-01T13:41:51.485Z,219.375
2019-05-01T13:45:21.478Z,196.875
2019-05-01T13:48:51.510Z,241.875
2019-05-01T13:52:21.590Z,236.25
2019-05-01T13:55:51.630Z,196.875
2019-05-01T13:59:22.068Z,168.75
2019-05-01T14:02:52.231Z,247.5
2019-05-01T14:06:22.488Z,208.125
2019-05-01T14:09:53.109Z,168.75
2019-05-01T14:13:23.640Z,219.375
2019-05-01T14:16:54.164Z,202.5
2019-05-01T14:20:25.559Z,191.25
2019-05-01T14:23:56.009Z,219.375
2019-05-01T14:27:26.402Z,208.125
2019-05-01T14:30:55.710Z,168.75
2019-05-01T14:34:26.116Z,225
2019-05-01T14:37:57.382Z,208.125
2019-05-01T14:41:28.931Z,174.375
2019-05-01T14:45:00.208Z,275.625
2019-05-01T14:48:30.818Z,275.625
2019-05-01T14:52:00.933Z,208.125
2019-05-01T14:55:30.924Z,309.375
2019-05-01T14:59:00.933Z,151.875
2019-05-01T15:02:30.911Z,275.625
2019-05-01T15:06:01.003Z,174.375
2019-05-01T15:09:31.079Z,140.625
2019-05-01T15:13:01.132Z,135
2019-05-01T15:16:31.109Z,118.125
2019-05-01T15:20:01.559Z,129.375
2019-05-01T15:23:31.743Z,112.5
2019-05-01T15:27:01.800Z,118.125
2019-05-01T15:30:32.001Z,123.75
2019-05-01T15:34:02.404Z,129.375
2019-05-01T15:37:35.258Z,174.375
2019-05-01T15:41:05.105Z,123.75
2019-05-01T15:44:35.868Z,95.625
2019-05-01T15:48:06.354Z,135
2019-05-01T15:51:36.829Z,67.5
2019-05-01T15:55:07.233Z,50.625
2019-05-01T15:58:37.889Z,45
2019-05-01T16:02:08.145Z,39.375
2019-05-01T16:05:39.298Z,39.375
2019-05-01T16:09:10.643Z,56.25
2019-05-01T16:12:40.259Z,56.25
2019-05-01T16:16:11.340Z,45
2019-05-01T16:19:44.349Z,50.625
2019-05-01T16:23:14.815Z,50.625
2019-05-01T16:26:43.121Z,45
2019-05-01T16:30:13.333Z,45
2019-05-01T16:33:43.781Z,33.75
2019-05-01T16:37:15.056Z,33.75
2019-05-01T16:40:45.619Z,33.75
2019-05-01T16:44:19.953Z,28.125
2019-05-01T16:47:50.590Z,45
2019-05-01T16:51:20.957Z,45
2019-05-01T16:54:59.210Z,28.125
2019-05-01T16:58:26.430Z,33.75
2019-05-01T17:01:58.443Z,22.5
2019-05-01T17:05:28.958Z,22.5
2019-05-01T17:09:02.076Z,22.5
2019-05-01T17:12:34.368Z,28.125
2019-05-01T17:16:04.674Z,33.75
2019-05-01T17:19:35.100Z,39.375
2019-05-01T17:23:11.944Z,50.625
2019-05-01T17:26:43.789Z,33.75
2019-05-01T17:30:14.156Z,28.125
2019-05-01T17:33:50.780Z,39.375
2019-05-01T17:37:18.099Z,39.375
2019-05-01T17:40:53.568Z,33.75
2019-05-01T17:44:26.653Z,28.125
2019-05-01T17:48:00.804Z,16.875
2019-05-01T17:51:31.024Z,16.875
2019-05-01T17:55:05.646Z,28.125
2019-05-01T17:58:35.116Z,22.5
2019-05-01T18:02:10.011Z,11.25
2019-05-01T18:05:39.911Z,11.25
2019-05-01T18:09:16.951Z,5.625
2019-05-01T18:12:49.187Z,5.625
2019-05-01T18:16:20.735Z,5.625
2019-05-01T18:19:51.829Z,5.625
2019-05-01T18:23:22.001Z,0
2019-05-01T18:26:52.665Z,0
2019-05-01T18:30:23.650Z,0
2019-05-01T18:33:56.823Z,0
2019-05-01T18:37:23.694Z,0
2019-05-01T18:40:54.694Z,0
2019-05-01T18:44:24.728Z,0
2019-05-01T18:47:54.741Z,0
2019-05-01T18:51:24.760Z,0
2019-05-01T18:54:54.791Z,0
2019-05-01T18:58:24.850Z,0
2019-05-01T19:01:54.994Z,0
2019-05-01T19:05:25.021Z,0
2019-05-01T19:08:55.890Z,0
2019-05-01T19:12:25.958Z,0
2019-05-01T19:15:57.584Z,0
2019-05-01T19:19:28.597Z,0
2019-05-01T19:22:58.699Z,0
2019-05-01T19:26:28.643Z,0
2019-05-01T19:30:00.583Z,0
2019-05-01T19:33:30.959Z,0
2019-05-01T19:37:00.881Z,0
2019-05-01T19:40:33.869Z,0
2019-05-01T19:44:03.887Z,0
2019-05-01T19:47:34.893Z,0
2019-05-01T19:51:04.881Z,0
2019-05-01T19:54:34.951Z,0
2019-05-01T19:58:05.011Z,0
2019-05-01T20:01:38.249Z,0
2019-05-01T20:05:06.109Z,0
2019-05-01T20:08:36.112Z,0
2019-05-01T20:12:06.917Z,0
2019-05-01T20:15:38.117Z,0
2019-05-01T20:19:09.354Z,0
2019-05-01T20:22:39.394Z,0
2019-05-01T20:26:09.969Z,0
2019-05-01T20:29:41.002Z,0
2019-05-01T20:33:12.019Z,0
2019-05-01T20:36:41.991Z,0
2019-05-01T20:40:13.932Z,0
2019-05-01T20:43:46.877Z,0
2019-05-01T20:47:33.840Z,0
2019-05-01T20:50:48.679Z,0
2019-05-01T20:54:18.637Z,0
2019-05-01T20:57:48.597Z,0
2019-05-01T21:01:18.571Z,0
2019-05-01T21:04:48.516Z,0
2019-05-01T21:08:18.531Z,0
2019-05-01T21:11:50.472Z,0
2019-05-01T21:15:26.776Z,0
2019-05-01T21:18:55.422Z,0
2019-05-01T21:22:26.406Z,0
2019-05-01T21:25:57.331Z,0
2019-05-01T21:29:28.288Z,0
2019-05-01T21:33:07.964Z,0
2019-05-01T21:36:32.919Z,0
2019-05-01T21:40:03.845Z,0
2019-05-01T21:43:37.733Z,0
2019-05-01T21:47:08.684Z,0
2019-05-01T21:50:38.649Z,0
2019-05-01T21:54:09.601Z,0
2019-05-01T21:57:42.542Z,0
